sensor_id;sensor_type;location;lat;lon;timestamp;pressure;altitude;pressure_sealevel;temperature;humidity
25232;BME280;13176;51.140;6.290;2024-01-11T00:00:29;102413.19;;;-0.51;64.19
25232;BME280;13176;51.140;6.290;2024-01-11T00:02:56;102290.69;;;-1.02;63.89
25232;BME280;13176;51.140;6.290;2024-01-11T00:05:22;102406.09;;;-0.12;64.17
25232;BME280;13176;51.140;6.290;2024-01-11T00:07:49;102393.69;;;-0.04;63.44
25232;BME280;13176;51.140;6.290;2024-01-11T00:10:16;102397.81;;;0.08;63.44
25232;BME280;13176;51.140;6.290;2024-01-11T00:12:42;102362.09;;;-0.19;63.28
25232;BME280;13176;51.140;6.290;2024-01-11T00:15:09;102267.00;;;-0.69;63.76
25232;BME280;13176;51.140;6.290;2024-01-11T00:17:36;102379.22;;;0.12;63.46
25232;BME280;13176;51.140;6.290;2024-01-11T00:20:03;102269.44;;;-0.56;63.24
25232;BME280;13176;51.140;6.290;2024-01-11T00:22:29;102427.56;;;0.35;63.06
25232;BME280;13176;51.140;6.290;2024-01-11T00:24:56;102422.44;;;0.35;63.08
25232;BME280;13176;51.140;6.290;2024-01-11T00:27:22;102382.31;;;0.21;63.13
25232;BME280;13176;51.140;6.290;2024-01-11T00:29:49;102353.72;;;-0.01;63.15
25232;BME280;13176;51.140;6.290;2024-01-11T00:32:15;102279.41;;;-0.46;62.52
25232;BME280;13176;51.140;6.290;2024-01-11T00:34:42;102406.19;;;0.20;62.95
25232;BME280;13176;51.140;6.290;2024-01-11T00:37:08;102427.84;;;0.25;63.00
25232;BME280;13176;51.140;6.290;2024-01-11T00:39:35;102426.78;;;0.36;62.98
25232;BME280;13176;51.140;6.290;2024-01-11T00:42:01;102393.94;;;0.14;62.97
25232;BME280;13176;51.140;6.290;2024-01-11T00:44:28;102407.97;;;0.21;62.77
25232;BME280;13176;51.140;6.290;2024-01-11T00:46:54;102406.94;;;0.17;63.00
25232;BME280;13176;51.140;6.290;2024-01-11T00:49:22;102399.13;;;0.16;62.73
25232;BME280;13176;51.140;6.290;2024-01-11T00:51:48;102428.50;;;0.21;62.97
25232;BME280;13176;51.140;6.290;2024-01-11T00:54:14;102310.00;;;-0.49;63.03
25232;BME280;13176;51.140;6.290;2024-01-11T00:56:41;102425.06;;;0.06;63.84
25232;BME280;13176;51.140;6.290;2024-01-11T00:59:07;102423.78;;;-0.02;63.02
25232;BME280;13176;51.140;6.290;2024-01-11T01:01:34;102419.97;;;-0.08;63.23
25232;BME280;13176;51.140;6.290;2024-01-11T01:04:00;102417.22;;;-0.11;63.54
25232;BME280;13176;51.140;6.290;2024-01-11T01:06:27;102384.06;;;-0.39;63.05
25232;BME280;13176;51.140;6.290;2024-01-11T01:08:55;102423.72;;;-0.32;63.99
25232;BME280;13176;51.140;6.290;2024-01-11T01:11:21;102425.19;;;-0.36;64.24
25232;BME280;13176;51.140;6.290;2024-01-11T01:13:48;102393.06;;;-0.60;64.22
25232;BME280;13176;51.140;6.290;2024-01-11T01:16:14;102412.69;;;-0.46;64.21
25232;BME280;13176;51.140;6.290;2024-01-11T01:18:43;102409.47;;;-0.71;64.74
25232;BME280;13176;51.140;6.290;2024-01-11T01:21:09;102433.00;;;-0.49;64.58
25232;BME280;13176;51.140;6.290;2024-01-11T01:23:36;102263.41;;;-1.44;64.69
25232;BME280;13176;51.140;6.290;2024-01-11T01:26:03;102391.22;;;-0.77;64.42
25232;BME280;13176;51.140;6.290;2024-01-11T01:28:33;102431.06;;;-0.53;64.68
25232;BME280;13176;51.140;6.290;2024-01-11T01:30:59;102295.88;;;-1.43;65.79
25232;BME280;13176;51.140;6.290;2024-01-11T01:33:26;102413.47;;;-0.76;65.05
25232;BME280;13176;51.140;6.290;2024-01-11T01:35:52;102396.41;;;-0.90;65.52
25232;BME280;13176;51.140;6.290;2024-01-11T01:38:19;102431.41;;;-0.76;64.92
25232;BME280;13176;51.140;6.290;2024-01-11T01:40:45;102376.06;;;-1.15;65.57
25232;BME280;13176;51.140;6.290;2024-01-11T01:43:12;102438.09;;;-0.92;66.26
25232;BME280;13176;51.140;6.290;2024-01-11T01:45:39;102438.16;;;-0.91;66.30
25232;BME280;13176;51.140;6.290;2024-01-11T01:48:06;102443.22;;;-0.78;66.45
25232;BME280;13176;51.140;6.290;2024-01-11T01:50:33;102308.91;;;-1.53;65.47
25232;BME280;13176;51.140;6.290;2024-01-11T01:53:00;102414.56;;;-1.00;65.47
25232;BME280;13176;51.140;6.290;2024-01-11T01:55:28;102426.22;;;-0.90;66.06
25232;BME280;13176;51.140;6.290;2024-01-11T01:57:55;102472.38;;;-0.76;65.72
25232;BME280;13176;51.140;6.290;2024-01-11T02:00:24;102465.31;;;-0.80;66.22
25232;BME280;13176;51.140;6.290;2024-01-11T02:02:51;102420.81;;;-1.09;65.78
25232;BME280;13176;51.140;6.290;2024-01-11T02:05:19;102444.91;;;-1.06;66.33
25232;BME280;13176;51.140;6.290;2024-01-11T02:07:46;102459.06;;;-0.98;65.74
25232;BME280;13176;51.140;6.290;2024-01-11T02:10:12;102460.44;;;-0.90;66.12
25232;BME280;13176;51.140;6.290;2024-01-11T02:12:39;102322.41;;;-1.83;66.13
25232;BME280;13176;51.140;6.290;2024-01-11T02:15:06;102390.91;;;-1.37;65.99
25232;BME280;13176;51.140;6.290;2024-01-11T02:17:33;102475.81;;;-1.03;66.30
25232;BME280;13176;51.140;6.290;2024-01-11T02:20:00;102464.19;;;-0.98;66.89
25232;BME280;13176;51.140;6.290;2024-01-11T02:22:32;102323.81;;;-1.88;66.20
25232;BME280;13176;51.140;6.290;2024-01-11T02:25:01;102349.09;;;-1.65;66.47
25232;BME280;13176;51.140;6.290;2024-01-11T02:27:28;102432.78;;;-1.22;66.41
25232;BME280;13176;51.140;6.290;2024-01-11T02:29:55;102415.13;;;-1.45;66.87
25232;BME280;13176;51.140;6.290;2024-01-11T02:32:21;102457.19;;;-1.14;66.84
25232;BME280;13176;51.140;6.290;2024-01-11T02:34:48;102426.50;;;-1.27;66.89
25232;BME280;13176;51.140;6.290;2024-01-11T02:37:15;102447.28;;;-1.09;66.43
25232;BME280;13176;51.140;6.290;2024-01-11T02:39:42;102379.50;;;-1.42;66.23
25232;BME280;13176;51.140;6.290;2024-01-11T02:42:08;102317.13;;;-1.86;66.27
25232;BME280;13176;51.140;6.290;2024-01-11T02:44:35;102481.81;;;-1.16;66.59
25232;BME280;13176;51.140;6.290;2024-01-11T02:47:03;102439.13;;;-1.30;66.10
25232;BME280;13176;51.140;6.290;2024-01-11T02:49:29;102442.88;;;-1.38;67.11
25232;BME280;13176;51.140;6.290;2024-01-11T02:51:56;102441.47;;;-1.33;66.95
25232;BME280;13176;51.140;6.290;2024-01-11T02:54:22;102456.22;;;-1.16;67.26
25232;BME280;13176;51.140;6.290;2024-01-11T02:56:49;102416.66;;;-1.21;66.12
25232;BME280;13176;51.140;6.290;2024-01-11T02:59:15;102461.41;;;-0.88;66.34
25232;BME280;13176;51.140;6.290;2024-01-11T03:01:42;102445.41;;;-0.98;65.56
25232;BME280;13176;51.140;6.290;2024-01-11T03:04:08;102387.56;;;-1.36;65.42
25232;BME280;13176;51.140;6.290;2024-01-11T03:06:35;102453.25;;;-1.10;65.41
25232;BME280;13176;51.140;6.290;2024-01-11T03:09:02;102457.78;;;-1.18;65.91
25232;BME280;13176;51.140;6.290;2024-01-11T03:11:28;102411.97;;;-1.41;66.06
25232;BME280;13176;51.140;6.290;2024-01-11T03:13:55;102434.72;;;-1.46;66.85
25232;BME280;13176;51.140;6.290;2024-01-11T03:16:22;102467.78;;;-1.36;67.11
25232;BME280;13176;51.140;6.290;2024-01-11T03:18:48;102436.59;;;-1.43;66.84
25232;BME280;13176;51.140;6.290;2024-01-11T03:21:15;102421.63;;;-1.65;67.37
25232;BME280;13176;51.140;6.290;2024-01-11T03:23:42;102430.34;;;-1.61;67.72
25232;BME280;13176;51.140;6.290;2024-01-11T03:26:21;102451.41;;;-1.65;67.98
25232;BME280;13176;51.140;6.290;2024-01-11T03:28:47;102408.72;;;-1.79;67.76
25232;BME280;13176;51.140;6.290;2024-01-11T03:31:14;102419.75;;;-1.80;67.76
25232;BME280;13176;51.140;6.290;2024-01-11T03:33:41;102413.88;;;-1.92;67.78
25232;BME280;13176;51.140;6.290;2024-01-11T03:36:09;102446.50;;;-1.75;68.41
25232;BME280;13176;51.140;6.290;2024-01-11T03:38:35;102421.75;;;-1.89;67.98
25232;BME280;13176;51.140;6.290;2024-01-11T03:41:07;102413.06;;;-1.78;67.53
25232;BME280;13176;51.140;6.290;2024-01-11T03:43:34;102388.00;;;-1.84;67.04
25232;BME280;13176;51.140;6.290;2024-01-11T03:46:00;102458.59;;;-1.32;67.06
25232;BME280;13176;51.140;6.290;2024-01-11T03:48:27;102288.50;;;-2.34;66.40
25232;BME280;13176;51.140;6.290;2024-01-11T03:50:53;102425.06;;;-1.77;66.40
25232;BME280;13176;51.140;6.290;2024-01-11T03:53:20;102441.38;;;-1.62;67.27
25232;BME280;13176;51.140;6.290;2024-01-11T03:55:46;102412.31;;;-1.90;66.78
25232;BME280;13176;51.140;6.290;2024-01-11T03:58:13;102447.34;;;-1.62;67.50
25232;BME280;13176;51.140;6.290;2024-01-11T04:00:40;102419.28;;;-1.88;67.50
25232;BME280;13176;51.140;6.290;2024-01-11T04:03:06;102443.53;;;-1.81;67.46
25232;BME280;13176;51.140;6.290;2024-01-11T04:05:33;102410.34;;;-2.07;67.46
25232;BME280;13176;51.140;6.290;2024-01-11T04:08:03;102480.72;;;-1.60;67.22
25232;BME280;13176;51.140;6.290;2024-01-11T04:10:30;102463.00;;;-1.70;67.00
25232;BME280;13176;51.140;6.290;2024-01-11T04:12:56;102425.78;;;-2.06;67.54
25232;BME280;13176;51.140;6.290;2024-01-11T04:15:22;102479.72;;;-1.75;67.63
25232;BME280;13176;51.140;6.290;2024-01-11T04:17:49;102453.81;;;-1.94;67.76
25232;BME280;13176;51.140;6.290;2024-01-11T04:20:15;102429.81;;;-2.09;67.28
25232;BME280;13176;51.140;6.290;2024-01-11T04:22:42;102499.13;;;-1.79;67.84
25232;BME280;13176;51.140;6.290;2024-01-11T04:25:08;102473.88;;;-1.87;67.79
25232;BME280;13176;51.140;6.290;2024-01-11T04:27:35;102476.00;;;-1.80;68.06
25232;BME280;13176;51.140;6.290;2024-01-11T04:30:02;102319.38;;;-2.70;68.07
25232;BME280;13176;51.140;6.290;2024-01-11T04:32:28;102430.78;;;-2.07;67.26
25232;BME280;13176;51.140;6.290;2024-01-11T04:34:55;102446.31;;;-2.04;67.84
25232;BME280;13176;51.140;6.290;2024-01-11T04:37:22;102457.31;;;-2.05;67.96
25232;BME280;13176;51.140;6.290;2024-01-11T04:39:48;102333.81;;;-2.83;68.67
25232;BME280;13176;51.140;6.290;2024-01-11T04:42:14;102476.00;;;-2.06;68.83
25232;BME280;13176;51.140;6.290;2024-01-11T04:44:41;102323.47;;;-2.98;68.25
25232;BME280;13176;51.140;6.290;2024-01-11T04:47:08;102497.66;;;-1.88;67.81
25232;BME280;13176;51.140;6.290;2024-01-11T04:49:34;102498.72;;;-1.85;67.80
25232;BME280;13176;51.140;6.290;2024-01-11T04:52:01;102488.22;;;-2.02;68.16
25232;BME280;13176;51.140;6.290;2024-01-11T04:54:28;102460.06;;;-2.15;68.26
25232;BME280;13176;51.140;6.290;2024-01-11T04:56:54;102439.41;;;-2.44;68.70
25232;BME280;13176;51.140;6.290;2024-01-11T04:59:21;102507.47;;;-2.20;68.66
25232;BME280;13176;51.140;6.290;2024-01-11T05:01:47;102350.81;;;-3.08;68.67
25232;BME280;13176;51.140;6.290;2024-01-11T05:04:14;102498.19;;;-2.18;68.44
25232;BME280;13176;51.140;6.290;2024-01-11T05:06:40;102518.28;;;-2.11;68.48
25232;BME280;13176;51.140;6.290;2024-01-11T05:09:07;102336.19;;;-3.11;67.73
25232;BME280;13176;51.140;6.290;2024-01-11T05:11:33;102297.91;;;-3.24;68.96
25232;BME280;13176;51.140;6.290;2024-01-11T05:14:00;102490.38;;;-2.21;68.21
25232;BME280;13176;51.140;6.290;2024-01-11T05:16:27;102360.56;;;-3.03;68.29
25232;BME280;13176;51.140;6.290;2024-01-11T05:18:56;102508.72;;;-2.39;68.99
25232;BME280;13176;51.140;6.290;2024-01-11T05:21:24;102520.63;;;-2.27;69.32
25232;BME280;13176;51.140;6.290;2024-01-11T05:23:50;102526.13;;;-2.21;69.10
25232;BME280;13176;51.140;6.290;2024-01-11T05:26:19;102536.94;;;-2.25;69.58
25232;BME280;13176;51.140;6.290;2024-01-11T05:28:46;102464.63;;;-2.61;69.00
25232;BME280;13176;51.140;6.290;2024-01-11T05:31:14;102496.50;;;-2.43;69.47
25232;BME280;13176;51.140;6.290;2024-01-11T05:33:42;102511.56;;;-2.35;69.97
25232;BME280;13176;51.140;6.290;2024-01-11T05:36:09;102381.25;;;-3.11;69.62
25232;BME280;13176;51.140;6.290;2024-01-11T05:38:35;102498.16;;;-2.57;69.94
25232;BME280;13176;51.140;6.290;2024-01-11T05:41:02;102309.59;;;-3.51;69.14
25232;BME280;13176;51.140;6.290;2024-01-11T05:43:29;102378.59;;;-3.13;68.76
25232;BME280;13176;51.140;6.290;2024-01-11T05:45:55;102401.59;;;-3.00;68.74
25232;BME280;13176;51.140;6.290;2024-01-11T05:48:22;102523.34;;;-2.37;68.91
25232;BME280;13176;51.140;6.290;2024-01-11T05:50:48;102548.16;;;-2.23;69.27
25232;BME280;13176;51.140;6.290;2024-01-11T05:53:15;102504.53;;;-2.50;69.14
25232;BME280;13176;51.140;6.290;2024-01-11T05:55:43;102312.28;;;-3.61;69.37
25232;BME280;13176;51.140;6.290;2024-01-11T05:58:10;102349.41;;;-3.29;69.00
25232;BME280;13176;51.140;6.290;2024-01-11T06:00:36;102480.44;;;-2.54;69.09
25232;BME280;13176;51.140;6.290;2024-01-11T06:03:03;102521.78;;;-2.35;69.22
25232;BME280;13176;51.140;6.290;2024-01-11T06:05:30;102517.81;;;-2.43;69.89
25232;BME280;13176;51.140;6.290;2024-01-11T06:08:00;102542.00;;;-2.38;69.75
25232;BME280;13176;51.140;6.290;2024-01-11T06:10:29;102486.00;;;-2.72;69.55
25232;BME280;13176;51.140;6.290;2024-01-11T06:12:57;102530.44;;;-2.33;69.38
25232;BME280;13176;51.140;6.290;2024-01-11T06:15:23;102539.22;;;-2.17;69.38
25232;BME280;13176;51.140;6.290;2024-01-11T06:17:49;102558.50;;;-2.09;68.69
25232;BME280;13176;51.140;6.290;2024-01-11T06:20:16;102534.63;;;-2.33;68.38
25232;BME280;13176;51.140;6.290;2024-01-11T06:22:43;102461.22;;;-2.86;68.25
25232;BME280;13176;51.140;6.290;2024-01-11T06:25:11;102554.69;;;-2.39;68.74
25232;BME280;13176;51.140;6.290;2024-01-11T06:27:38;102539.53;;;-2.36;68.88
25232;BME280;13176;51.140;6.290;2024-01-11T06:30:05;102564.34;;;-2.23;68.64
25232;BME280;13176;51.140;6.290;2024-01-11T06:32:31;102550.88;;;-2.33;69.13
25232;BME280;13176;51.140;6.290;2024-01-11T06:34:58;102464.75;;;-2.84;69.09
25232;BME280;13176;51.140;6.290;2024-01-11T06:37:25;102563.84;;;-2.30;69.90
25232;BME280;13176;51.140;6.290;2024-01-11T06:39:53;102429.59;;;-3.13;69.93
25232;BME280;13176;51.140;6.290;2024-01-11T06:42:20;102582.75;;;-2.15;69.86
25232;BME280;13176;51.140;6.290;2024-01-11T06:44:46;102428.88;;;-2.99;69.69
25232;BME280;13176;51.140;6.290;2024-01-11T06:47:13;102555.41;;;-2.16;69.84
25232;BME280;13176;51.140;6.290;2024-01-11T06:49:40;102564.47;;;-2.08;69.28
25232;BME280;13176;51.140;6.290;2024-01-11T06:52:07;102400.91;;;-2.97;69.50
25232;BME280;13176;51.140;6.290;2024-01-11T06:54:34;102543.53;;;-2.16;69.47
25232;BME280;13176;51.140;6.290;2024-01-11T06:57:00;102573.53;;;-2.00;69.33
25232;BME280;13176;51.140;6.290;2024-01-11T06:59:27;102545.03;;;-1.93;69.06
25232;BME280;13176;51.140;6.290;2024-01-11T07:01:53;102518.06;;;-2.14;68.74
25232;BME280;13176;51.140;6.290;2024-01-11T07:04:20;102569.03;;;-1.91;68.26
25232;BME280;13176;51.140;6.290;2024-01-11T07:06:47;102427.41;;;-2.71;68.29
25232;BME280;13176;51.140;6.290;2024-01-11T07:09:14;102525.72;;;-2.27;68.58
25232;BME280;13176;51.140;6.290;2024-01-11T07:11:43;102558.41;;;-1.97;69.15
25232;BME280;13176;51.140;6.290;2024-01-11T07:14:10;102433.19;;;-2.73;68.50
25232;BME280;13176;51.140;6.290;2024-01-11T07:16:37;102572.50;;;-2.15;68.74
25232;BME280;13176;51.140;6.290;2024-01-11T07:19:03;102532.94;;;-2.46;69.06
25232;BME280;13176;51.140;6.290;2024-01-11T07:21:30;102458.56;;;-2.88;68.94
25232;BME280;13176;51.140;6.290;2024-01-11T07:23:59;102513.34;;;-2.58;69.55
25232;BME280;13176;51.140;6.290;2024-01-11T07:26:26;102561.38;;;-2.28;68.86
25232;BME280;13176;51.140;6.290;2024-01-11T07:28:53;102401.47;;;-3.14;68.50
25232;BME280;13176;51.140;6.290;2024-01-11T07:31:23;102382.13;;;-3.35;68.90
25232;BME280;13176;51.140;6.290;2024-01-11T07:33:50;102580.16;;;-2.28;68.85
25232;BME280;13176;51.140;6.290;2024-01-11T07:36:17;102450.19;;;-2.98;69.75
25232;BME280;13176;51.140;6.290;2024-01-11T07:38:44;102625.59;;;-2.11;70.42
25232;BME280;13176;51.140;6.290;2024-01-11T07:41:11;102490.66;;;-2.67;69.26
25232;BME280;13176;51.140;6.290;2024-01-11T07:43:38;102462.06;;;-2.99;70.01
25232;BME280;13176;51.140;6.290;2024-01-11T07:46:19;102379.16;;;-3.41;69.95
25232;BME280;13176;51.140;6.290;2024-01-11T07:48:54;102343.50;;;-3.52;69.88
25232;BME280;13176;51.140;6.290;2024-01-11T07:51:21;102564.50;;;-2.32;70.41
25232;BME280;13176;51.140;6.290;2024-01-11T07:53:48;102550.25;;;-2.42;70.51
25232;BME280;13176;51.140;6.290;2024-01-11T07:56:14;102582.75;;;-2.15;70.86
25232;BME280;13176;51.140;6.290;2024-01-11T07:58:41;102449.72;;;-2.93;70.20
25232;BME280;13176;51.140;6.290;2024-01-11T08:01:09;102608.75;;;-1.96;70.30
25232;BME280;13176;51.140;6.290;2024-01-11T08:03:36;102457.19;;;-2.83;70.13
25232;BME280;13176;51.140;6.290;2024-01-11T08:06:03;102582.28;;;-2.10;70.53
25232;BME280;13176;51.140;6.290;2024-01-11T08:08:30;102440.13;;;-2.84;70.69
25232;BME280;13176;51.140;6.290;2024-01-11T08:10:56;102598.75;;;-1.93;70.63
25232;BME280;13176;51.140;6.290;2024-01-11T08:13:23;102614.28;;;-1.90;70.93
25232;BME280;13176;51.140;6.290;2024-01-11T08:15:49;102606.59;;;-1.90;70.28
25232;BME280;13176;51.140;6.290;2024-01-11T08:18:18;102290.34;;;-3.59;69.90
25232;BME280;13176;51.140;6.290;2024-01-11T08:20:45;102566.06;;;-1.97;70.18
25232;BME280;13176;51.140;6.290;2024-01-11T08:23:11;102405.69;;;-2.77;69.94
25232;BME280;13176;51.140;6.290;2024-01-11T08:25:38;102590.88;;;-1.70;70.39
25232;BME280;13176;51.140;6.290;2024-01-11T08:28:05;102400.50;;;-2.66;70.03
25232;BME280;13176;51.140;6.290;2024-01-11T08:30:32;102471.97;;;-2.28;70.58
25232;BME280;13176;51.140;6.290;2024-01-11T08:33:00;102386.63;;;-2.82;70.64
25232;BME280;13176;51.140;6.290;2024-01-11T08:35:27;102555.28;;;-1.67;70.33
25232;BME280;13176;51.140;6.290;2024-01-11T08:37:54;102536.00;;;-1.75;70.17
25232;BME280;13176;51.140;6.290;2024-01-11T08:40:20;102585.78;;;-1.44;70.48
25232;BME280;13176;51.140;6.290;2024-01-11T08:42:47;102425.31;;;-2.26;70.52
25232;BME280;13176;51.140;6.290;2024-01-11T08:45:13;102572.97;;;-1.31;70.28
25232;BME280;13176;51.140;6.290;2024-01-11T08:47:45;102630.16;;;-1.05;70.26
25232;BME280;13176;51.140;6.290;2024-01-11T08:50:13;102529.47;;;-1.44;69.85
25232;BME280;13176;51.140;6.290;2024-01-11T08:52:40;102566.75;;;-1.09;69.91
25232;BME280;13176;51.140;6.290;2024-01-11T08:55:07;102585.63;;;-0.94;69.69
25232;BME280;13176;51.140;6.290;2024-01-11T08:57:34;102612.69;;;-0.85;69.59
25232;BME280;13176;51.140;6.290;2024-01-11T09:00:03;102602.03;;;-0.78;69.59
25232;BME280;13176;51.140;6.290;2024-01-11T09:02:30;102609.78;;;-0.63;69.47
25232;BME280;13176;51.140;6.290;2024-01-11T09:04:57;102611.41;;;-0.51;69.52
25232;BME280;13176;51.140;6.290;2024-01-11T09:07:23;102586.75;;;-0.49;68.91
25232;BME280;13176;51.140;6.290;2024-01-11T09:09:49;102592.94;;;-0.45;68.97
25232;BME280;13176;51.140;6.290;2024-01-11T09:12:22;102527.50;;;-0.68;68.99
25232;BME280;13176;51.140;6.290;2024-01-11T09:14:53;102617.25;;;-0.11;68.72
25232;BME280;13176;51.140;6.290;2024-01-11T09:17:19;102602.19;;;-0.20;67.99
25232;BME280;13176;51.140;6.290;2024-01-11T09:19:47;102610.22;;;-0.01;67.87
25232;BME280;13176;51.140;6.290;2024-01-11T09:22:22;102507.94;;;-0.53;67.41
25232;BME280;13176;51.140;6.290;2024-01-11T09:24:59;102616.22;;;0.14;66.90
25232;BME280;13176;51.140;6.290;2024-01-11T09:27:44;102616.16;;;0.27;66.98
25232;BME280;13176;51.140;6.290;2024-01-11T09:30:41;102595.25;;;0.21;66.60
25232;BME280;13176;51.140;6.290;2024-01-11T09:33:16;102596.78;;;0.32;66.03
25232;BME280;13176;51.140;6.290;2024-01-11T09:35:47;102609.66;;;0.48;65.90
25232;BME280;13176;51.140;6.290;2024-01-11T09:38:31;102609.22;;;0.55;65.30
25232;BME280;13176;51.140;6.290;2024-01-11T09:41:07;102628.06;;;0.41;65.36
25232;BME280;13176;51.140;6.290;2024-01-11T09:43:37;102625.41;;;0.54;65.56
25232;BME280;13176;51.140;6.290;2024-01-11T09:46:17;102616.03;;;0.69;65.00
25232;BME280;13176;51.140;6.290;2024-01-11T09:49:48;102639.94;;;0.68;64.57
25232;BME280;13176;51.140;6.290;2024-01-11T09:52:20;102615.91;;;0.82;64.60
25232;BME280;13176;51.140;6.290;2024-01-11T09:54:46;102628.25;;;0.73;64.26
25232;BME280;13176;51.140;6.290;2024-01-11T09:57:16;102640.91;;;1.00;64.06
25232;BME280;13176;51.140;6.290;2024-01-11T09:59:43;102660.94;;;1.06;63.97
25232;BME280;13176;51.140;6.290;2024-01-11T10:02:22;102599.47;;;0.94;64.03
25232;BME280;13176;51.140;6.290;2024-01-11T10:04:51;102616.47;;;1.07;63.42
25232;BME280;13176;51.140;6.290;2024-01-11T10:07:22;102662.78;;;1.38;63.57
25232;BME280;13176;51.140;6.290;2024-01-11T10:09:49;102631.03;;;1.38;62.84
25232;BME280;13176;51.140;6.290;2024-01-11T10:12:20;102529.16;;;0.92;63.04
25232;BME280;13176;51.140;6.290;2024-01-11T10:14:49;102533.13;;;1.02;63.01
25232;BME280;13176;51.140;6.290;2024-01-11T10:17:16;102629.13;;;1.66;62.64
25232;BME280;13176;51.140;6.290;2024-01-11T10:19:48;102621.34;;;1.64;61.38
25232;BME280;13176;51.140;6.290;2024-01-11T10:22:15;102614.75;;;1.69;61.77
25232;BME280;13176;51.140;6.290;2024-01-11T10:24:43;102609.69;;;1.71;61.85
25232;BME280;13176;51.140;6.290;2024-01-11T10:27:10;102630.59;;;1.93;61.68
25232;BME280;13176;51.140;6.290;2024-01-11T10:29:36;102585.41;;;1.66;62.29
25232;BME280;13176;51.140;6.290;2024-01-11T10:32:04;102615.88;;;1.90;62.79
25232;BME280;13176;51.140;6.290;2024-01-11T10:34:33;102605.66;;;1.76;62.30
25232;BME280;13176;51.140;6.290;2024-01-11T10:37:00;102620.84;;;1.87;61.96
25232;BME280;13176;51.140;6.290;2024-01-11T10:39:27;102631.78;;;1.99;61.59
25232;BME280;13176;51.140;6.290;2024-01-11T10:42:05;102604.59;;;2.04;61.19
25232;BME280;13176;51.140;6.290;2024-01-11T10:44:34;102649.72;;;2.47;61.39
25232;BME280;13176;51.140;6.290;2024-01-11T10:47:03;102611.00;;;2.45;60.16
25232;BME280;13176;51.140;6.290;2024-01-11T10:49:33;102638.53;;;2.64;60.12
25232;BME280;13176;51.140;6.290;2024-01-11T10:52:02;102594.44;;;2.58;59.70
25232;BME280;13176;51.140;6.290;2024-01-11T10:54:33;102642.09;;;2.83;59.77
25232;BME280;13176;51.140;6.290;2024-01-11T10:57:01;102617.22;;;2.66;59.45
25232;BME280;13176;51.140;6.290;2024-01-11T10:59:28;102651.00;;;2.90;59.48
25232;BME280;13176;51.140;6.290;2024-01-11T11:02:04;102617.38;;;2.87;59.20
25232;BME280;13176;51.140;6.290;2024-01-11T11:04:33;102633.38;;;2.99;58.76
25232;BME280;13176;51.140;6.290;2024-01-11T11:07:02;102651.03;;;3.26;59.00
25232;BME280;13176;51.140;6.290;2024-01-11T11:09:30;102620.44;;;2.97;59.09
25232;BME280;13176;51.140;6.290;2024-01-11T11:11:59;102591.28;;;2.81;58.16
25232;BME280;13176;51.140;6.290;2024-01-11T11:14:28;102691.56;;;3.29;57.73
25232;BME280;13176;51.140;6.290;2024-01-11T11:16:54;102682.81;;;3.25;57.34
25232;BME280;13176;51.140;6.290;2024-01-11T11:19:21;102667.00;;;3.36;58.21
25232;BME280;13176;51.140;6.290;2024-01-11T11:21:48;102651.00;;;3.43;57.66
25232;BME280;13176;51.140;6.290;2024-01-11T11:24:16;102602.19;;;3.29;56.99
25232;BME280;13176;51.140;6.290;2024-01-11T11:26:45;102563.56;;;3.31;56.74
25232;BME280;13176;51.140;6.290;2024-01-11T11:29:15;102608.88;;;3.81;56.50
25232;BME280;13176;51.140;6.290;2024-01-11T11:31:43;102660.97;;;4.10;55.52
25232;BME280;13176;51.140;6.290;2024-01-11T11:34:13;102637.03;;;4.14;55.57
25232;BME280;13176;51.140;6.290;2024-01-11T11:36:42;102635.28;;;4.13;55.44
25232;BME280;13176;51.140;6.290;2024-01-11T11:39:13;102632.28;;;4.23;54.40
25232;BME280;13176;51.140;6.290;2024-01-11T11:41:39;102632.53;;;4.29;54.00
25232;BME280;13176;51.140;6.290;2024-01-11T11:44:11;102630.78;;;4.48;53.60
25232;BME280;13176;51.140;6.290;2024-01-11T11:46:39;102647.69;;;4.61;52.98
25232;BME280;13176;51.140;6.290;2024-01-11T11:49:05;102491.19;;;3.65;52.67
25232;BME280;13176;51.140;6.290;2024-01-11T11:51:34;102645.66;;;4.54;53.51
25232;BME280;13176;51.140;6.290;2024-01-11T11:54:01;102660.78;;;4.45;52.91
25232;BME280;13176;51.140;6.290;2024-01-11T11:56:29;102572.00;;;3.83;53.74
25232;BME280;13176;51.140;6.290;2024-01-11T11:58:57;102637.25;;;4.19;53.60
25232;BME280;13176;51.140;6.290;2024-01-11T12:01:24;102601.75;;;3.94;53.50
25232;BME280;13176;51.140;6.290;2024-01-11T12:03:52;102620.91;;;3.99;54.15
25232;BME280;13176;51.140;6.290;2024-01-11T12:06:20;102618.59;;;3.86;53.98
25232;BME280;13176;51.140;6.290;2024-01-11T12:08:51;102640.88;;;3.84;54.52
25232;BME280;13176;51.140;6.290;2024-01-11T12:11:21;102671.00;;;4.04;54.61
25232;BME280;13176;51.140;6.290;2024-01-11T12:13:49;102631.09;;;3.96;54.07
25232;BME280;13176;51.140;6.290;2024-01-11T12:16:15;102649.41;;;4.02;54.25
25232;BME280;13176;51.140;6.290;2024-01-11T12:18:42;102580.06;;;3.53;54.04
25232;BME280;13176;51.140;6.290;2024-01-11T12:21:09;102646.59;;;3.96;53.93
25232;BME280;13176;51.140;6.290;2024-01-11T12:23:38;102609.88;;;3.84;54.63
25232;BME280;13176;51.140;6.290;2024-01-11T12:26:06;102470.78;;;3.13;54.21
25232;BME280;13176;51.140;6.290;2024-01-11T12:28:34;102617.59;;;4.03;53.84
25232;BME280;13176;51.140;6.290;2024-01-11T12:31:00;102596.59;;;3.94;53.98
25232;BME280;13176;51.140;6.290;2024-01-11T12:33:27;102622.66;;;4.00;53.60
25232;BME280;13176;51.140;6.290;2024-01-11T12:35:54;102595.19;;;4.02;53.11
25232;BME280;13176;51.140;6.290;2024-01-11T12:38:21;102605.13;;;3.93;53.63
25232;BME280;13176;51.140;6.290;2024-01-11T12:40:48;102531.69;;;3.47;53.39
25232;BME280;13176;51.140;6.290;2024-01-11T12:43:15;102526.13;;;3.57;53.54
25232;BME280;13176;51.140;6.290;2024-01-11T12:45:42;102588.69;;;3.72;53.50
25232;BME280;13176;51.140;6.290;2024-01-11T12:48:09;102541.72;;;3.60;53.63
25232;BME280;13176;51.140;6.290;2024-01-11T12:50:36;102590.91;;;4.03;52.89
25232;BME280;13176;51.140;6.290;2024-01-11T12:55:30;102579.00;;;4.06;52.91
25232;BME280;13176;51.140;6.290;2024-01-11T12:58:06;102592.06;;;4.09;53.70